Time;durP1;ratioP1;P1;durP2;ratioP2;P2;SDS_P1;SDS_P2;PMS_P1;PMS_P2;Temp;Humidity;BMP_temperature;BMP_pressure;BME280_temperature;BME280_humidity;BME280_pressure;Samples;Min_cycle;Max_cycle;Signal;HPM_P1;HPM_P2
2023/03/30 00:01:13;;;;;;;3.37;2.90;;;12.90;99.90;;;;;;4978290;28;20479;-91
2023/03/30 00:03:41;;;;;;;5.53;3.20;;;12.90;99.90;;;;;;4978016;28;20441;-91
2023/03/30 00:06:09;;;;;;;5.73;3.90;;;12.90;99.90;;;;;;4961920;28;20420;-91
2023/03/30 00:08:39;;;;;;;4.23;3.03;;;12.90;99.90;;;;;;4993862;28;20477;-92
2023/03/30 00:11:12;;;;;;;4.60;3.13;;;12.90;99.90;;;;;;4993931;28;20466;-92
2023/03/30 00:13:44;;;;;;;3.47;3.03;;;12.90;99.90;;;;;;4994227;28;20443;-91
2023/03/30 00:16:12;;;;;;;4.30;3.60;;;12.90;99.90;;;;;;4977765;28;20426;-91
2023/03/30 00:18:39;;;;;;;6.17;3.30;;;12.80;99.90;;;;;;4993891;28;20416;-91
2023/03/30 00:21:08;;;;;;;5.17;3.43;;;12.90;99.90;;;;;;4977697;28;20443;-92
2023/03/30 00:23:35;;;;;;;5.73;3.50;;;12.90;99.90;;;;;;4993759;28;20419;-92
2023/03/30 00:26:01;;;;;;;5.83;3.60;;;12.80;99.90;;;;;;4977399;28;20447;-92
2023/03/30 00:28:31;;;;;;;4.70;3.40;;;12.80;99.90;;;;;;4977585;28;20451;-91
2023/03/30 00:30:58;;;;;;;5.57;3.43;;;12.80;99.90;;;;;;4977467;28;20481;-92
2023/03/30 00:33:24;;;;;;;4.43;3.30;;;12.80;99.90;;;;;;5009883;28;20415;-91
2023/03/30 00:35:55;;;;;;;5.07;3.40;;;12.80;99.90;;;;;;5000456;28;20420;-91
2023/03/30 00:38:21;;;;;;;3.77;3.23;;;12.80;99.90;;;;;;5032612;28;20442;-91
2023/03/30 00:40:58;;;;;;;4.70;3.37;;;12.80;99.90;;;;;;5000441;28;20431;-91
2023/03/30 00:43:25;;;;;;;6.10;3.60;;;12.80;99.90;;;;;;5016115;28;20514;-91
2023/03/30 00:45:51;;;;;;;4.80;3.10;;;12.80;99.90;;;;;;5016208;28;20443;-91
2023/03/30 00:48:26;;;;;;;6.17;3.67;;;12.80;99.90;;;;;;5015799;28;20421;-91
2023/03/30 00:50:53;;;;;;;4.57;3.10;;;12.80;99.90;;;;;;5015885;28;20555;-91
2023/03/30 00:53:30;;;;;;;4.93;3.80;;;12.80;99.90;;;;;;5016022;28;20511;-91
2023/03/30 00:55:58;;;;;;;4.60;2.87;;;12.80;99.90;;;;;;4999819;28;20467;-92
2023/03/30 00:58:27;;;;;;;3.43;2.53;;;12.80;99.90;;;;;;4981554;28;20452;-91
2023/03/30 01:00:53;;;;;;;5.77;3.43;;;12.80;99.90;;;;;;4996277;28;20472;-91
2023/03/30 01:03:29;;;;;;;6.00;3.50;;;12.80;99.90;;;;;;4996073;28;20436;-91
2023/03/30 01:06:02;;;;;;;5.23;3.20;;;12.80;99.90;;;;;;4996113;28;20742;-91
2023/03/30 01:08:32;;;;;;;5.53;3.37;;;12.80;99.90;;;;;;5012584;28;20403;-91
2023/03/30 01:11:00;;;;;;;6.00;3.27;;;12.80;99.90;;;;;;4996183;28;20537;-91
2023/03/30 01:13:32;;;;;;;6.30;3.70;;;12.80;99.90;;;;;;4996285;28;20460;-91
2023/03/30 01:16:34;;;;;;;6.97;3.67;;;12.80;99.90;;;;;;4996177;28;20436;-91
2023/03/30 01:19:18;;;;;;;5.53;3.50;;;12.80;99.90;;;;;;4996046;28;20545;-90
2023/03/30 01:21:47;;;;;;;6.70;3.80;;;12.80;99.90;;;;;;4995829;28;20768;-90
2023/03/30 01:24:31;;;;;;;3.83;3.03;;;12.80;99.90;;;;;;4976562;28;20794;-91
2023/03/30 01:27:01;;;;;;;7.07;3.27;;;12.80;99.90;;;;;;4960577;28;20441;-91
2023/03/30 01:29:36;;;;;;;5.93;3.37;;;12.80;99.90;;;;;;4960612;28;20455;-90
2023/03/30 01:32:40;;;;;;;5.80;3.67;;;12.80;99.90;;;;;;4976505;28;20413;-90
2023/03/30 01:35:16;;;;;;;5.87;3.03;;;12.80;99.90;;;;;;4960449;28;20492;-91
2023/03/30 01:38:04;;;;;;;6.30;3.27;;;12.80;99.90;;;;;;4960624;28;20424;-90
2023/03/30 01:40:41;;;;;;;4.70;3.40;;;12.80;99.90;;;;;;4976207;28;20421;-89
2023/03/30 01:43:19;;;;;;;4.03;3.03;;;12.80;99.90;;;;;;4960350;28;20458;-91
2023/03/30 01:45:54;;;;;;;3.50;3.00;;;12.80;99.90;;;;;;4992530;28;20403;-91
2023/03/30 01:48:44;;;;;;;4.33;2.70;;;12.80;99.90;;;;;;4976380;28;20481;-90
2023/03/30 01:51:23;;;;;;;5.77;3.33;;;12.80;99.90;;;;;;4960223;28;20504;-91
2023/03/30 01:53:52;;;;;;;4.40;3.37;;;12.80;99.90;;;;;;4960372;28;20882;-90
2023/03/30 01:56:28;;;;;;;4.13;2.80;;;12.80;99.90;;;;;;4979522;28;20482;-91
2023/03/30 01:59:13;;;;;;;4.47;3.20;;;12.70;99.90;;;;;;4979514;28;20248;-89
2023/03/30 02:01:41;;;;;;;5.40;3.47;;;12.80;99.90;;;;;;4979389;28;20467;-92
2023/03/30 02:04:13;;;;;;;4.43;3.03;;;12.80;99.90;;;;;;4995649;28;20452;-91
2023/03/30 02:06:45;;;;;;;7.40;3.47;;;12.80;99.90;;;;;;4995585;28;20512;-90
2023/03/30 02:09:16;;;;;;;3.40;3.10;;;12.80;99.90;;;;;;4995825;28;20480;-89
2023/03/30 02:11:46;;;;;;;4.10;3.00;;;12.80;99.90;;;;;;4994977;28;20491;-91
2023/03/30 02:14:16;;;;;;;4.73;3.43;;;12.80;99.90;;;;;;4979393;28;20413;-91
2023/03/30 02:16:49;;;;;;;7.23;3.60;;;12.80;99.90;;;;;;4979299;28;20438;-91
2023/03/30 02:19:15;;;;;;;6.93;3.57;;;12.80;99.90;;;;;;4998035;28;20404;-91
2023/03/30 02:21:42;;;;;;;5.87;3.23;;;12.80;99.90;;;;;;4983259;28;20424;-90
2023/03/30 02:24:17;;;;;;;4.73;3.13;;;12.80;99.90;;;;;;4999049;28;20820;-91
2023/03/30 02:26:49;;;;;;;3.27;2.97;;;12.80;99.90;;;;;;4980123;28;20422;-91
2023/03/30 02:29:16;;;;;;;6.90;2.83;;;12.80;99.90;;;;;;4963733;28;20454;-92
2023/03/30 02:31:44;;;;;;;5.90;3.00;;;12.80;99.90;;;;;;4995723;28;20470;-91
2023/03/30 02:34:29;;;;;;;6.37;3.00;;;12.80;99.90;;;;;;4979847;28;20433;-91
2023/03/30 02:37:23;;;;;;;6.20;3.27;;;12.80;99.90;;;;;;4979915;28;20421;-92
2023/03/30 02:40:26;;;;;;;4.40;3.23;;;12.80;99.90;;;;;;4963530;28;20454;-91
2023/03/30 02:43:23;;;;;;;4.23;3.00;;;12.80;99.90;;;;;;4963542;28;20428;-91
2023/03/30 02:45:58;;;;;;;10.77;3.17;;;12.80;99.90;;;;;;4979471;28;20428;-90
2023/03/30 02:48:32;;;;;;;4.87;3.00;;;12.80;99.90;;;;;;4979634;28;20485;-91
2023/03/30 02:51:23;;;;;;;4.43;3.40;;;12.80;99.90;;;;;;4978895;28;20526;-91
2023/03/30 02:54:34;;;;;;;9.90;3.17;;;12.80;99.90;;;;;;4990479;28;20431;-91
2023/03/30 02:57:30;;;;;;;4.90;2.90;;;12.70;99.90;;;;;;4979118;28;20451;-90
2023/03/30 03:00:41;;;;;;;5.30;3.10;;;12.70;99.90;;;;;;4998054;28;20459;-92
2023/03/30 03:03:18;;;;;;;4.17;3.00;;;12.70;99.90;;;;;;4982413;28;20478;-92
2023/03/30 03:05:47;;;;;;;5.83;2.63;;;12.70;99.90;;;;;;5014317;28;20422;-90
2023/03/30 03:08:18;;;;;;;5.50;2.77;;;12.70;99.90;;;;;;4982374;28;20510;-90
2023/03/30 03:10:47;;;;;;;4.10;2.83;;;12.70;99.90;;;;;;4998415;28;20566;-91
2023/03/30 03:13:19;;;;;;;3.60;3.23;;;12.70;99.90;;;;;;4982255;28;20819;-91
2023/03/30 03:15:48;;;;;;;4.10;2.80;;;12.70;99.90;;;;;;5014589;28;20438;-93
2023/03/30 03:18:17;;;;;;;4.70;2.77;;;12.70;99.90;;;;;;4981996;28;20437;-91
2023/03/30 03:20:43;;;;;;;5.40;3.73;;;12.70;99.90;;;;;;4998442;28;20437;-93
2023/03/30 03:23:09;;;;;;;5.10;3.10;;;12.70;99.90;;;;;;4998150;28;20433;-93
2023/03/30 03:25:44;;;;;;;7.87;3.33;;;12.70;99.90;;;;;;4998202;28;20437;-92
2023/03/30 03:28:37;;;;;;;4.47;2.80;;;12.70;99.90;;;;;;4998037;28;20440;-93
2023/03/30 03:31:09;;;;;;;4.20;2.57;;;12.80;99.90;;;;;;4998176;28;20466;-92
2023/03/30 03:33:37;;;;;;;6.03;2.93;;;12.70;99.90;;;;;;4982398;28;20537;-92
2023/03/30 03:36:13;;;;;;;3.40;2.70;;;12.80;99.90;;;;;;4981978;28;20954;-93
2023/03/30 03:38:46;;;;;;;10.47;3.07;;;12.80;99.90;;;;;;4981727;28;20418;-91
2023/03/30 03:41:13;;;;;;;3.70;2.73;;;12.70;99.90;;;;;;4997751;28;20463;-93
2023/03/30 03:43:41;;;;;;;4.93;2.80;;;12.70;99.90;;;;;;4998038;28;20427;-92
2023/03/30 03:46:10;;;;;;;6.07;3.33;;;12.80;99.90;;;;;;4981699;28;20565;-92
2023/03/30 03:48:36;;;;;;;4.43;3.00;;;12.70;99.90;;;;;;5013936;28;20416;-93
2023/03/30 03:51:02;;;;;;;4.30;3.40;;;12.70;99.90;;;;;;4997255;28;20503;-92
2023/03/30 03:53:32;;;;;;;3.90;2.63;;;12.80;99.90;;;;;;4997605;28;20424;-92
2023/03/30 03:56:05;;;;;;;3.53;2.83;;;12.80;99.90;;;;;;4998187;28;20482;-93
2023/03/30 03:58:33;;;;;;;3.50;2.60;;;12.70;99.90;;;;;;4981523;28;20431;-92
2023/03/30 04:01:01;;;;;;;3.57;2.80;;;12.70;99.90;;;;;;4978659;28;20452;-93
2023/03/30 04:03:30;;;;;;;3.17;2.30;;;12.70;99.90;;;;;;4961821;28;20459;-93
2023/03/30 04:06:01;;;;;;;3.40;2.90;;;12.70;99.90;;;;;;4993684;28;20399;-94
2023/03/30 04:08:30;;;;;;;4.63;2.80;;;12.70;99.90;;;;;;4978087;28;20454;-92
2023/03/30 04:11:11;;;;;;;5.27;3.00;;;12.80;99.90;;;;;;4978707;28;20870;-92
2023/03/30 04:13:55;;;;;;;7.73;3.10;;;12.70;99.90;;;;;;4977861;28;20460;-92
2023/03/30 04:16:39;;;;;;;5.87;2.47;;;12.70;99.90;;;;;;4980154;28;20439;-92
2023/03/30 04:19:30;;;;;;;4.00;2.60;;;12.80;99.90;;;;;;4988695;28;20493;-93
2023/03/30 04:22:23;;;;;;;5.43;2.60;;;12.70;99.90;;;;;;4981355;28;20423;-92
2023/03/30 04:29:39;;;;;;;4.47;2.33;;;12.70;99.90;;;;;;4978201;28;20443;-92
2023/03/30 04:32:38;;;;;;;9.37;3.10;;;12.70;99.90;;;;;;4978084;28;20502;-89
2023/03/30 04:35:24;;;;;;;4.90;2.80;;;12.70;99.90;;;;;;4977296;28;20434;-93
2023/03/30 04:38:02;;;;;;;5.30;3.13;;;12.70;99.90;;;;;;4977465;28;20450;-91
2023/03/30 04:41:05;;;;;;;3.57;2.50;;;12.70;99.90;;;;;;4960430;28;20739;-92
2023/03/30 04:43:44;;;;;;;2.67;2.07;;;12.70;99.90;;;;;;4977169;28;20452;-92
2023/03/30 04:46:27;;;;;;;5.10;2.70;;;12.70;99.90;;;;;;4961260;28;20452;-92
2023/03/30 04:49:14;;;;;;;4.33;2.50;;;12.70;99.90;;;;;;4966956;28;20548;-91
2023/03/30 04:52:00;;;;;;;5.37;3.27;;;12.70;99.90;;;;;;4999393;28;20510;-94
2023/03/30 04:54:53;;;;;;;6.10;2.47;;;12.70;99.90;;;;;;4976973;28;20445;-94
2023/03/30 04:57:38;;;;;;;3.60;2.47;;;12.70;99.90;;;;;;4991089;28;20431;-94
2023/03/30 05:00:26;;;;;;;3.77;2.47;;;12.70;99.90;;;;;;4976650;28;20825;-94
2023/03/30 05:03:12;;;;;;;6.93;2.67;;;12.70;99.90;;;;;;4963378;28;20457;-93
2023/03/30 05:06:03;;;;;;;3.87;2.40;;;12.70;99.90;;;;;;4972458;28;20946;-94
2023/03/30 05:08:48;;;;;;;5.73;2.63;;;12.70;99.90;;;;;;4996441;28;20411;-92
2023/03/30 05:11:20;;;;;;;5.60;2.67;;;12.70;99.90;;;;;;4996506;28;20477;-93
2023/03/30 05:14:18;;;;;;;2.90;2.17;;;12.70;99.90;;;;;;4983986;28;20428;-85
2023/03/30 05:17:05;;;;;;;2.67;2.47;;;12.80;99.90;;;;;;4993762;28;20452;-84
2023/03/30 05:19:55;;;;;;;2.90;2.37;;;12.80;99.90;;;;;;4994541;28;20454;-84
2023/03/30 05:22:50;;;;;;;6.40;2.87;;;12.80;99.90;;;;;;4997955;28;20461;-84
2023/03/30 05:25:36;;;;;;;4.87;2.27;;;12.80;99.90;;;;;;5008097;28;20461;-83
2023/03/30 05:28:21;;;;;;;5.00;2.67;;;12.80;99.90;;;;;;4995321;28;20422;-85
2023/03/30 05:31:08;;;;;;;7.90;4.20;;;12.80;99.90;;;;;;4981880;28;20575;-84
2023/03/30 05:33:58;;;;;;;5.73;2.70;;;12.80;99.90;;;;;;4965141;28;20907;-84
2023/03/30 05:36:34;;;;;;;5.83;2.80;;;12.80;99.90;;;;;;4991218;28;20456;-85
2023/03/30 05:39:08;;;;;;;4.07;2.67;;;12.80;99.90;;;;;;5003619;28;20433;-84
2023/03/30 05:42:13;;;;;;;5.03;2.63;;;12.80;99.90;;;;;;4935468;29;20461;-84
2023/03/30 05:44:51;;;;;;;2.93;2.60;;;12.90;99.90;;;;;;4935705;29;20744;-85
2023/03/30 05:47:42;;;;;;;5.37;2.90;;;12.90;99.90;;;;;;4977653;28;20535;-84
2023/03/30 05:50:30;;;;;;;6.67;2.60;;;12.90;99.90;;;;;;4983826;28;20477;-84
2023/03/30 05:53:03;;;;;;;5.13;2.23;;;12.90;99.90;;;;;;5007183;28;20432;-85
2023/03/30 05:55:48;;;;;;;9.40;3.00;;;12.90;99.90;;;;;;4997607;28;20495;-84
2023/03/30 05:58:38;;;;;;;3.10;2.60;;;12.90;99.90;;;;;;4996436;28;20440;-85
2023/03/30 06:01:04;;;;;;;4.23;2.30;;;12.90;99.90;;;;;;5000832;28;20443;-85
2023/03/30 06:03:37;;;;;;;7.10;2.87;;;12.90;99.90;;;;;;5000909;28;20398;-85
2023/03/30 06:06:04;;;;;;;3.90;2.50;;;12.90;99.90;;;;;;5000524;28;20451;-85
2023/03/30 06:08:35;;;;;;;6.97;2.90;;;12.90;99.90;;;;;;4984136;28;20578;-84
2023/03/30 06:11:03;;;;;;;6.57;2.70;;;12.90;99.90;;;;;;4981032;28;20477;-85
2023/03/30 06:13:41;;;;;;;3.80;2.30;;;12.90;99.90;;;;;;5016651;28;20819;-86
2023/03/30 06:16:08;;;;;;;5.20;2.90;;;12.90;99.90;;;;;;5001239;28;20460;-85
2023/03/30 06:18:36;;;;;;;3.87;2.20;;;13.00;99.90;;;;;;4984215;28;20905;-86
2023/03/30 06:21:07;;;;;;;5.97;2.67;;;13.00;99.90;;;;;;4980992;28;20419;-85
2023/03/30 06:23:43;;;;;;;8.53;3.00;;;13.00;99.90;;;;;;4997083;28;20455;-85
2023/03/30 06:26:16;;;;;;;2.80;2.20;;;13.00;99.90;;;;;;4997294;28;20421;-86
2023/03/30 06:28:42;;;;;;;6.77;2.50;;;13.00;99.90;;;;;;4980938;28;20435;-84
2023/03/30 06:31:12;;;;;;;4.47;2.60;;;13.00;99.90;;;;;;4980917;28;20462;-83
2023/03/30 06:33:41;;;;;;;5.13;3.00;;;13.00;99.90;;;;;;4995699;28;20517;-85
2023/03/30 06:36:18;;;;;;;3.10;2.40;;;12.90;99.90;;;;;;5015602;28;20460;-82
2023/03/30 06:38:45;;;;;;;4.53;2.10;;;13.00;99.90;;;;;;4980621;28;20431;-82
2023/03/30 06:41:20;;;;;;;5.43;2.67;;;13.00;99.90;;;;;;4996094;28;20470;-82
2023/03/30 06:43:48;;;;;;;3.87;2.37;;;13.00;99.90;;;;;;5015986;28;20425;-83
2023/03/30 06:46:15;;;;;;;4.30;2.70;;;13.00;99.90;;;;;;5016015;28;20518;-84
2023/03/30 06:48:49;;;;;;;5.53;2.90;;;13.00;99.90;;;;;;5016297;28;20424;-85
2023/03/30 06:51:36;;;;;;;3.37;2.40;;;13.00;99.90;;;;;;5016379;28;20475;-86
2023/03/30 06:54:04;;;;;;;2.10;1.90;;;13.00;99.90;;;;;;5016488;28;20458;-85
2023/03/30 06:56:30;;;;;;;3.37;2.47;;;13.00;99.90;;;;;;5016609;28;20422;-85
2023/03/30 06:59:17;;;;;;;3.60;2.60;;;13.00;99.90;;;;;;5000632;28;20482;-83
2023/03/30 07:02:06;;;;;;;4.43;2.83;;;13.00;99.90;;;;;;5000709;28;20457;-83
2023/03/30 07:04:50;;;;;;;4.23;2.47;;;13.00;99.90;;;;;;4997827;28;20749;-83
2023/03/30 07:07:31;;;;;;;3.60;2.77;;;13.00;99.90;;;;;;4993502;28;20456;-82
2023/03/30 07:10:08;;;;;;;8.60;2.57;;;13.00;99.90;;;;;;5009269;28;20463;-83
2023/03/30 07:12:40;;;;;;;6.57;3.17;;;13.00;99.90;;;;;;4993926;28;20440;-84
2023/03/30 07:15:07;;;;;;;14.27;2.63;;;13.00;99.90;;;;;;4994600;28;20746;-83
2023/03/30 07:17:39;;;;;;;4.90;2.47;;;13.00;99.90;;;;;;4981087;28;20785;-83
2023/03/30 07:20:13;;;;;;;3.93;2.40;;;13.10;99.90;;;;;;5012906;28;20443;-83
2023/03/30 07:22:55;;;;;;;4.67;2.90;;;13.10;99.90;;;;;;4980367;28;20875;-83
2023/03/30 07:25:23;;;;;;;6.67;2.60;;;13.10;99.90;;;;;;4996819;28;20427;-83
2023/03/30 07:27:55;;;;;;;2.70;2.20;;;13.10;99.90;;;;;;4997229;28;20394;-83
2023/03/30 07:30:21;;;;;;;3.50;2.37;;;13.10;99.90;;;;;;5012670;28;20980;-84
2023/03/30 07:32:50;;;;;;;5.70;2.50;;;13.10;99.90;;;;;;5012461;28;20905;-84
2023/03/30 07:35:18;;;;;;;3.33;2.20;;;13.10;99.90;;;;;;4980414;28;20435;-83
2023/03/30 07:37:49;;;;;;;4.63;1.87;;;13.10;99.90;;;;;;4996481;28;20445;-83
2023/03/30 07:40:20;;;;;;;2.80;1.90;;;13.20;99.90;;;;;;4996424;28;20434;-83
2023/03/30 07:42:46;;;;;;;4.23;2.37;;;13.20;99.90;;;;;;5012351;28;20451;-83
2023/03/30 07:45:13;;;;;;;5.93;2.13;;;13.20;99.90;;;;;;5003689;28;20448;-84
2023/03/30 07:47:46;;;;;;;3.53;1.80;;;13.20;99.90;;;;;;4993062;28;20447;-83
2023/03/30 07:50:12;;;;;;;4.30;2.20;;;13.20;99.90;;;;;;4961671;28;20501;-83
2023/03/30 07:52:40;;;;;;;4.97;2.30;;;13.20;99.90;;;;;;4996297;28;20455;-82
2023/03/30 07:55:11;;;;;;;4.83;2.17;;;13.20;99.90;;;;;;5012041;28;20453;-84
2023/03/30 07:57:47;;;;;;;4.67;2.17;;;13.20;99.90;;;;;;4996198;28;20436;-83
2023/03/30 08:00:16;;;;;;;2.77;1.90;;;13.20;99.90;;;;;;4996002;28;20769;-83
2023/03/30 08:03:02;;;;;;;4.63;2.00;;;13.20;99.90;;;;;;4996710;28;20451;-83
2023/03/30 08:05:28;;;;;;;3.00;2.27;;;13.20;99.90;;;;;;4979715;28;20463;-84
2023/03/30 08:08:06;;;;;;;4.80;2.00;;;13.20;99.90;;;;;;5011845;28;20451;-84
2023/03/30 08:10:36;;;;;;;3.20;2.07;;;13.20;99.90;;;;;;4995804;28;20500;-84
2023/03/30 08:13:02;;;;;;;2.90;2.70;;;13.20;99.90;;;;;;4995819;28;20504;-84
2023/03/30 08:15:31;;;;;;;5.40;2.13;;;13.20;99.90;;;;;;4994504;28;20437;-84
2023/03/30 08:17:57;;;;;;;9.67;4.33;;;13.20;99.90;;;;;;5012071;28;20425;-83
2023/03/30 08:20:23;;;;;;;3.23;2.07;;;13.20;99.90;;;;;;4996396;28;20485;-84
2023/03/30 08:22:49;;;;;;;5.13;2.10;;;13.30;99.90;;;;;;4995684;28;20457;-84
2023/03/30 08:25:15;;;;;;;3.60;2.07;;;13.30;99.90;;;;;;5011408;28;20442;-83
2023/03/30 08:27:41;;;;;;;5.07;2.67;;;13.30;99.90;;;;;;4996378;28;20507;-83
2023/03/30 08:30:08;;;;;;;6.60;2.10;;;13.30;99.90;;;;;;4995124;28;20963;-83
2023/03/30 08:32:36;;;;;;;6.00;1.67;;;13.30;99.90;;;;;;5011636;28;20450;-83
2023/03/30 08:35:05;;;;;;;6.57;1.97;;;13.30;99.90;;;;;;4992893;28;20418;-83
2023/03/30 08:37:31;;;;;;;8.23;2.17;;;13.30;99.90;;;;;;4979054;28;20444;-83
2023/03/30 08:39:56;;;;;;;3.03;1.70;;;13.30;99.90;;;;;;4995078;28;20998;-83
2023/03/30 08:42:46;;;;;;;5.80;2.50;;;13.30;99.90;;;;;;4995265;28;20176;-83
2023/03/30 08:45:12;;;;;;;7.73;2.10;;;13.30;99.90;;;;;;4995193;28;20256;-82
2023/03/30 08:47:41;;;;;;;7.37;2.60;;;13.30;99.90;;;;;;4996039;28;20424;-83
2023/03/30 08:50:15;;;;;;;3.20;1.97;;;13.30;99.90;;;;;;4995672;28;20462;-83
2023/03/30 08:52:41;;;;;;;4.40;1.90;;;13.30;99.90;;;;;;4995835;28;20451;-83
2023/03/30 08:55:20;;;;;;;5.73;2.07;;;13.30;99.90;;;;;;4994991;28;20417;-84
2023/03/30 08:58:01;;;;;;;5.83;2.50;;;13.30;99.90;;;;;;5011236;28;20412;-81
2023/03/30 09:00:48;;;;;;;7.90;2.70;;;13.40;99.90;;;;;;4975536;28;20398;-83
2023/03/30 09:03:25;;;;;;;3.40;1.70;;;13.40;99.90;;;;;;5007526;28;20432;-84
2023/03/30 09:05:58;;;;;;;8.20;2.30;;;13.40;99.90;;;;;;4995595;28;20505;-83
2023/03/30 09:08:28;;;;;;;9.60;2.70;;;13.40;99.90;;;;;;4994697;28;20921;-82
2023/03/30 09:11:01;;;;;;;9.70;2.13;;;13.40;99.90;;;;;;4978266;28;20463;-82
2023/03/30 09:13:34;;;;;;;5.40;2.00;;;13.40;99.90;;;;;;4994959;28;20433;-83
2023/03/30 09:16:18;;;;;;;6.73;2.20;;;13.50;99.90;;;;;;4995519;28;20413;-83
2023/03/30 09:18:49;;;;;;;5.03;2.00;;;13.50;99.90;;;;;;4995312;28;20450;-83
2023/03/30 09:21:26;;;;;;;4.30;1.87;;;13.50;99.90;;;;;;5010921;28;20426;-83
2023/03/30 09:23:56;;;;;;;7.00;2.20;;;13.50;99.90;;;;;;4994435;28;20953;-83
2023/03/30 09:26:51;;;;;;;4.37;2.40;;;13.50;99.90;;;;;;4994190;28;20418;-84
2023/03/30 09:29:38;;;;;;;6.03;1.80;;;13.50;99.90;;;;;;4975896;28;20416;-83
2023/03/30 09:32:13;;;;;;;7.87;2.20;;;13.60;99.90;;;;;;4982083;28;20525;-83
2023/03/30 09:35:06;;;;;;;3.20;1.87;;;13.50;99.90;;;;;;4994511;28;20421;-84
2023/03/30 09:37:34;;;;;;;5.27;2.40;;;13.60;99.90;;;;;;4994993;28;20464;-83
2023/03/30 09:40:27;;;;;;;7.70;2.07;;;13.60;99.90;;;;;;5011194;28;20493;-85
2023/03/30 09:43:24;;;;;;;5.53;2.10;;;13.60;99.90;;;;;;4995869;28;20449;-84
2023/03/30 09:45:50;;;;;;;8.13;2.27;;;13.60;99.90;;;;;;4980433;28;20429;-85
2023/03/30 09:48:18;;;;;;;8.03;2.97;;;13.60;99.90;;;;;;4994199;28;20432;-83
2023/03/30 09:50:45;;;;;;;5.13;2.70;;;13.60;99.90;;;;;;4993993;28;20471;-86
2023/03/30 09:53:28;;;;;;;7.20;2.80;;;13.60;99.90;;;;;;4982125;28;20434;-86
2023/03/30 09:56:08;;;;;;;7.60;2.13;;;13.60;99.90;;;;;;4974918;28;20448;-85
2023/03/30 09:58:37;;;;;;;5.00;2.03;;;13.60;99.90;;;;;;4959561;28;20939;-84
2023/03/30 10:01:17;;;;;;;4.53;2.70;;;13.60;99.90;;;;;;4994168;28;20747;-85
2023/03/30 10:04:08;;;;;;;7.73;2.83;;;13.60;99.90;;;;;;4994348;28;20485;-85
2023/03/30 10:06:45;;;;;;;9.40;3.07;;;13.50;99.90;;;;;;5010623;28;20483;-84
2023/03/30 10:09:18;;;;;;;8.13;2.47;;;13.50;99.90;;;;;;4993937;28;20935;-84
2023/03/30 10:11:49;;;;;;;9.60;2.80;;;13.50;99.90;;;;;;5010577;28;20453;-85
2023/03/30 10:14:31;;;;;;;6.73;2.57;;;13.50;99.90;;;;;;4994194;28;20432;-85
2023/03/30 10:16:58;;;;;;;10.43;2.60;;;13.50;99.90;;;;;;4994633;28;20507;-83
2023/03/30 10:19:27;;;;;;;3.27;2.20;;;13.50;99.90;;;;;;5010360;28;20431;-85
2023/03/30 10:21:58;;;;;;;5.23;2.10;;;13.40;99.90;;;;;;4993668;28;20578;-84
2023/03/30 10:24:31;;;;;;;10.87;3.00;;;13.50;99.90;;;;;;4995089;28;20408;-84
2023/03/30 10:27:04;;;;;;;8.00;2.87;;;13.50;99.90;;;;;;4978072;28;20556;-85
2023/03/30 10:29:30;;;;;;;8.10;2.67;;;13.50;99.90;;;;;;4994018;28;20505;-84
2023/03/30 10:32:07;;;;;;;7.43;2.57;;;13.50;99.90;;;;;;4977457;28;20471;-85
2023/03/30 10:34:44;;;;;;;9.07;2.77;;;13.50;99.90;;;;;;4994077;28;20893;-85
2023/03/30 10:37:18;;;;;;;6.87;2.70;;;13.50;99.90;;;;;;4994748;28;20846;-85
2023/03/30 10:39:49;;;;;;;7.80;2.30;;;13.50;99.90;;;;;;5011998;28;20727;-84
2023/03/30 10:42:21;;;;;;;7.20;3.10;;;13.50;99.90;;;;;;4981334;28;20944;-84
2023/03/30 10:44:56;;;;;;;7.07;2.27;;;13.50;99.90;;;;;;4997641;28;20550;-84
2023/03/30 10:48:03;;;;;;;5.77;2.47;;;13.50;99.90;;;;;;4998244;28;20528;-85
2023/03/30 10:50:54;;;;;;;5.07;2.20;;;13.50;99.90;;;;;;4997171;28;20470;-84
2023/03/30 10:53:43;;;;;;;8.83;3.77;;;13.50;99.90;;;;;;5013403;28;20486;-85
2023/03/30 10:56:08;;;;;;;6.33;2.87;;;13.50;99.90;;;;;;4998058;28;20797;-83
2023/03/30 10:58:58;;;;;;;7.73;2.50;;;13.60;99.90;;;;;;4997339;28;20505;-84
2023/03/30 11:01:48;;;;;;;4.80;2.17;;;13.60;99.90;;;;;;4997908;28;20470;-84
2023/03/30 11:04:42;;;;;;;4.17;2.50;;;13.60;99.90;;;;;;4993738;28;20770;-83
2023/03/30 11:07:40;;;;;;;7.20;2.50;;;13.60;99.90;;;;;;4995821;28;20463;-82
2023/03/30 11:10:28;;;;;;;7.53;2.47;;;13.70;99.90;;;;;;4996975;28;20524;-83
2023/03/30 11:13:06;;;;;;;4.87;2.50;;;13.70;99.90;;;;;;4996925;28;20510;-81
2023/03/30 11:15:57;;;;;;;4.20;2.63;;;13.70;99.90;;;;;;4996856;28;20451;-83
2023/03/30 11:18:54;;;;;;;6.57;2.53;;;13.70;99.90;;;;;;4996889;28;20470;-84
2023/03/30 11:21:26;;;;;;;5.97;2.23;;;13.70;99.90;;;;;;4997613;28;20411;-82
2023/03/30 11:23:58;;;;;;;5.33;2.43;;;13.80;99.90;;;;;;4996636;28;20451;-84
2023/03/30 11:26:36;;;;;;;12.43;3.20;;;13.80;99.90;;;;;;4997569;28;20448;-84
2023/03/30 11:29:31;;;;;;;4.27;2.57;;;13.80;99.90;;;;;;4996655;28;20482;-84
2023/03/30 11:32:23;;;;;;;6.00;2.50;;;13.80;99.90;;;;;;4995852;28;20853;-83
2023/03/30 11:35:13;;;;;;;7.37;2.67;;;13.90;99.90;;;;;;4978056;28;20414;-83
2023/03/30 11:37:57;;;;;;;6.20;2.57;;;13.90;99.90;;;;;;4977862;28;20431;-85
2023/03/30 11:40:28;;;;;;;7.93;2.83;;;13.90;99.90;;;;;;4961083;28;20430;-84
2023/03/30 11:42:57;;;;;;;7.57;2.90;;;13.90;99.90;;;;;;4992460;28;20436;-84
2023/03/30 11:45:56;;;;;;;5.90;3.13;;;13.90;99.90;;;;;;4997320;28;20822;-83
2023/03/30 11:48:28;;;;;;;9.10;3.00;;;13.90;99.90;;;;;;4996438;28;20403;-83
2023/03/30 11:51:29;;;;;;;4.80;2.37;;;14.00;99.90;;;;;;5012090;28;20475;-84
2023/03/30 11:54:20;;;;;;;4.57;3.00;;;14.00;99.90;;;;;;4996090;28;20419;-82
2023/03/30 11:57:00;;;;;;;6.50;2.57;;;14.00;99.90;;;;;;4977502;28;20412;-83
2023/03/30 11:59:32;;;;;;;5.10;2.57;;;14.00;99.90;;;;;;4976907;28;20458;-83
2023/03/30 12:02:17;;;;;;;4.30;2.10;;;14.00;99.90;;;;;;4976793;28;20507;-83
2023/03/30 12:05:05;;;;;;;4.00;2.00;;;14.10;99.90;;;;;;4995812;28;20491;-83
2023/03/30 12:07:59;;;;;;;11.13;2.60;;;14.10;99.90;;;;;;4995831;28;20457;-82
2023/03/30 12:10:42;;;;;;;8.77;2.63;;;14.10;99.90;;;;;;4976123;28;20474;-84
2023/03/30 12:13:20;;;;;;;7.80;2.50;;;14.10;99.90;;;;;;4979545;28;20435;-83
2023/03/30 12:16:06;;;;;;;8.43;2.67;;;14.10;99.90;;;;;;5011905;28;20408;-84
2023/03/30 12:18:55;;;;;;;5.97;2.37;;;14.10;99.90;;;;;;4996507;28;20496;-84
2023/03/30 12:21:30;;;;;;;7.10;2.27;;;14.10;99.90;;;;;;4996237;28;20426;-84
2023/03/30 12:24:11;;;;;;;3.60;2.40;;;14.10;99.90;;;;;;4996420;28;20595;-86
2023/03/30 12:26:39;;;;;;;6.40;3.73;;;14.10;99.90;;;;;;4995867;28;20453;-88
2023/03/30 12:29:16;;;;;;;8.07;2.57;;;14.10;99.90;;;;;;4980110;28;20441;-90
2023/03/30 12:32:05;;;;;;;6.80;2.40;;;14.10;99.90;;;;;;4979834;28;20825;-89
2023/03/30 12:34:36;;;;;;;5.37;2.30;;;14.10;99.90;;;;;;4995670;28;20473;-86
2023/03/30 12:37:08;;;;;;;8.00;2.50;;;14.10;99.90;;;;;;4996617;28;20534;-88
2023/03/30 12:39:43;;;;;;;6.13;2.60;;;14.00;99.90;;;;;;4993187;28;20806;-88
2023/03/30 12:42:25;;;;;;;5.23;2.70;;;14.00;99.90;;;;;;4986770;28;20438;-89
2023/03/30 12:45:03;;;;;;;6.77;2.40;;;14.00;99.90;;;;;;4996411;28;20852;-88
2023/03/30 12:47:38;;;;;;;6.30;2.57;;;14.00;99.90;;;;;;4996220;28;20420;-88
2023/03/30 12:50:04;;;;;;;5.97;2.30;;;14.00;99.90;;;;;;4995168;28;20530;-87
2023/03/30 12:52:30;;;;;;;4.97;2.40;;;14.00;99.90;;;;;;4995093;28;20823;-87
2023/03/30 12:55:12;;;;;;;4.77;2.40;;;14.00;99.90;;;;;;4995152;28;20175;-88
2023/03/30 12:58:14;;;;;;;5.63;2.83;;;13.90;99.90;;;;;;4995792;28;20432;-86
2023/03/30 13:00:55;;;;;;;3.83;2.43;;;13.90;99.90;;;;;;4995024;28;20426;-88
2023/03/30 13:03:51;;;;;;;6.20;1.90;;;13.90;99.90;;;;;;5010897;28;20437;-87
2023/03/30 13:06:31;;;;;;;7.23;2.30;;;13.90;99.90;;;;;;4995349;28;20741;-88
2023/03/30 13:09:15;;;;;;;5.07;2.00;;;13.90;99.90;;;;;;5011387;28;20447;-88
2023/03/30 13:11:52;;;;;;;4.97;2.33;;;13.90;99.90;;;;;;4995402;28;20472;-88
2023/03/30 13:14:33;;;;;;;7.60;2.13;;;13.90;99.90;;;;;;4994890;28;20800;-87
2023/03/30 13:17:02;;;;;;;14.77;3.03;;;13.90;99.90;;;;;;4995301;28;20440;-85
2023/03/30 13:19:33;;;;;;;3.13;1.90;;;13.90;99.90;;;;;;5015712;28;20455;-92
2023/03/30 13:22:10;;;;;;;4.07;1.90;;;13.90;99.90;;;;;;4995418;28;20475;-92
2023/03/30 13:24:45;;;;;;;4.47;1.90;;;13.90;99.90;;;;;;4996684;28;20417;-92
2023/03/30 13:27:25;;;;;;;6.40;2.60;;;13.90;99.90;;;;;;4995875;28;20477;-92
2023/03/30 13:30:12;;;;;;;8.33;2.30;;;13.90;99.90;;;;;;4995166;28;20487;-92
2023/03/30 13:32:55;;;;;;;4.93;1.67;;;13.90;99.90;;;;;;4996115;28;20416;-92
2023/03/30 13:35:50;;;;;;;6.50;2.00;;;13.90;99.90;;;;;;5012020;28;20405;-92
2023/03/30 13:38:30;;;;;;;3.83;2.00;;;14.00;99.90;;;;;;4996143;28;20420;-93
2023/03/30 13:41:15;;;;;;;2.90;1.90;;;14.00;99.90;;;;;;4995766;28;20460;-93